Time,TemperatureF,DewpointF,PressureIn,WindDirection,WindDirectionDegrees,WindSpeedMPH,WindSpeedGustMPH,Humidity,HourlyPrecipIn,Conditions,Clouds,dailyrainin,SolarRadiationWatts/m^2,SoftwareType,DateUTC
2013-03-08 00:01:00,61.0,20.0,30.05,West,279,17.0,26.0,20,-99.99,,,-99.99,0.000000,,2013-03-08 07:01:00,
2013-03-08 00:11:00,61.0,20.0,30.05,West,279,18.0,35.0,20,-99.99,,,-99.99,0.000000,,2013-03-08 07:11:00,
2013-03-08 00:22:00,61.0,20.0,30.05,West,279,18.0,35.0,20,-99.99,,,-99.99,0.000000,,2013-03-08 07:22:00,
2013-03-08 00:31:00,60.0,20.0,30.05,WNW,284,18.0,27.0,20,-99.99,,,-99.99,0.000000,,2013-03-08 07:31:00,
2013-03-08 00:42:00,60.0,20.0,30.05,WNW,285,16.0,26.0,21,-99.99,,,-99.99,0.000000,,2013-03-08 07:42:00,
2013-03-08 00:52:00,60.0,21.0,30.05,WNW,284,14.0,22.0,21,-99.99,,,-99.99,0.000000,,2013-03-08 07:52:00,
2013-03-08 01:01:00,60.0,21.0,30.05,WNW,284,14.0,22.0,21,-99.99,,,-99.99,0.000000,,2013-03-08 08:01:00,
2013-03-08 01:11:00,60.0,21.0,30.04,WNW,289,17.0,27.0,21,-99.99,,,-99.99,0.000000,,2013-03-08 08:11:00,
2013-03-08 01:22:00,60.0,21.0,30.04,WNW,289,17.0,27.0,21,-99.99,,,-99.99,0.000000,,2013-03-08 08:22:00,
2013-03-08 01:32:00,60.0,21.0,30.04,WNW,288,18.0,31.0,22,-99.99,,,-99.99,0.000000,,2013-03-08 08:32:00,
2013-03-08 01:42:00,60.0,22.0,30.04,WNW,286,17.0,28.0,22,-99.99,,,-99.99,0.000000,,2013-03-08 08:42:00,
2013-03-08 01:52:00,60.0,22.0,30.04,WNW,286,17.0,28.0,22,-99.99,,,-99.99,0.000000,,2013-03-08 08:52:00,
2013-03-08 02:03:00,59.0,22.0,30.04,WNW,282,16.0,26.0,23,-99.99,,,-99.99,0.000000,,2013-03-08 09:03:00,
2013-03-08 02:11:00,59.0,22.0,30.04,West,277,14.0,24.0,23,-99.99,,,-99.99,0.000000,,2013-03-08 09:11:00,
2013-03-08 02:21:00,59.0,22.0,30.04,West,277,14.0,24.0,23,-99.99,,,-99.99,0.000000,,2013-03-08 09:21:00,
2013-03-08 02:32:00,59.0,22.0,30.03,West,277,15.0,25.0,23,-99.99,,,-99.99,0.000000,,2013-03-08 09:32:00,
2013-03-08 02:42:00,59.0,22.0,30.03,West,277,18.0,25.0,24,-99.99,,,-99.99,0.000000,,2013-03-08 09:42:00,
2013-03-08 02:52:00,59.0,22.0,30.03,West,277,18.0,25.0,24,-99.99,,,-99.99,0.000000,,2013-03-08 09:52:00,
2013-03-08 03:01:00,58.0,22.0,30.02,West,279,18.0,26.0,24,-99.99,,,-99.99,0.000000,,2013-03-08 10:01:00,
2013-03-08 03:11:00,58.0,22.0,30.01,West,281,18.0,26.0,24,-99.99,,,-99.99,0.000000,,2013-03-08 10:11:00,
2013-03-08 03:21:00,58.0,22.0,30.01,West,281,18.0,26.0,24,-99.99,,,-99.99,0.000000,,2013-03-08 10:21:00,
2013-03-08 03:32:00,58.0,22.0,30.01,WNW,282,18.0,25.0,24,-99.99,,,-99.99,0.000000,,2013-03-08 10:32:00,
2013-03-08 03:42:00,57.0,22.0,30.01,West,279,16.0,24.0,24,-99.99,,,-99.99,0.000000,,2013-03-08 10:42:00,
2013-03-08 03:52:00,57.0,22.0,30.01,West,279,16.0,24.0,24,-99.99,,,-99.99,0.000000,,2013-03-08 10:52:00,
2013-03-08 04:01:00,57.0,22.0,30.01,West,279,16.0,24.0,24,-99.99,,,-99.99,0.000000,,2013-03-08 11:01:00,
2013-03-08 04:11:00,57.0,22.0,30.01,West,274,16.0,26.0,25,-99.99,,,-99.99,0.000000,,2013-03-08 11:11:00,
2013-03-08 04:21:00,57.0,22.0,30.01,West,274,16.0,26.0,25,-99.99,,,-99.99,0.000000,,2013-03-08 11:21:00,
2013-03-08 04:32:00,57.0,23.0,30.01,West,275,15.0,25.0,26,-99.99,,,-99.99,0.000000,,2013-03-08 11:32:00,
2013-03-08 04:42:00,57.0,23.0,30.01,West,275,16.0,22.0,26,-99.99,,,-99.99,0.000000,,2013-03-08 11:42:00,
2013-03-08 04:52:00,57.0,23.0,30.01,West,275,16.0,22.0,26,-99.99,,,-99.99,0.000000,,2013-03-08 11:52:00,
2013-03-08 05:01:00,56.0,23.0,30.02,West,273,14.0,21.0,26,-99.99,,,-99.99,0.000000,,2013-03-08 12:01:00,
2013-03-08 05:11:00,56.0,23.0,30.02,West,273,13.0,19.0,27,-99.99,,,-99.99,0.000000,,2013-03-08 12:11:00,
2013-03-08 05:22:00,56.0,23.0,30.02,West,273,13.0,19.0,27,-99.99,,,-99.99,0.000000,,2013-03-08 12:22:00,
2013-03-08 05:32:00,56.0,23.0,30.02,West,275,13.0,18.0,27,-99.99,,,-99.99,0.000000,,2013-03-08 12:32:00,
2013-03-08 05:43:00,56.0,23.0,30.03,West,280,9.0,15.0,27,-99.99,,,-99.99,0.000000,,2013-03-08 12:43:00,
2013-03-08 05:53:00,56.0,23.0,30.03,West,280,9.0,15.0,27,-99.99,,,-99.99,0.000000,,2013-03-08 12:53:00,
2013-03-08 06:01:00,55.0,23.0,30.03,WNW,290,7.0,9.0,27,-99.99,,,-99.99,0.000000,,2013-03-08 13:01:00,
2013-03-08 06:11:00,54.0,22.0,30.03,WNW,285,6.0,8.0,29,-99.99,,,-99.99,0.000000,,2013-03-08 13:11:00,
2013-03-08 06:22:00,54.0,22.0,30.03,WNW,285,6.0,8.0,29,-99.99,,,-99.99,0.000000,,2013-03-08 13:22:00,
2013-03-08 06:32:00,53.0,22.0,30.03,WNW,294,6.0,8.0,29,-99.99,,,-99.99,0.000000,,2013-03-08 13:32:00,
2013-03-08 06:42:00,52.0,22.0,30.03,West,272,6.0,8.0,30,-99.99,,,-99.99,0.000000,,2013-03-08 13:42:00,
2013-03-08 06:52:00,52.0,22.0,30.03,West,272,6.0,8.0,30,-99.99,,,-99.99,0.000000,,2013-03-08 13:52:00,
2013-03-08 07:02:00,55.0,23.0,30.03,West,263,5.0,8.0,29,-99.99,,,-99.99,2.790000,,2013-03-08 14:02:00,
2013-03-08 07:11:00,56.0,24.0,30.03,SSW,209,2.0,7.0,28,-99.99,,,-99.99,25.799999,,2013-03-08 14:11:00,
2013-03-08 07:22:00,56.0,24.0,30.03,SSW,209,2.0,7.0,28,-99.99,,,-99.99,25.799999,,2013-03-08 14:22:00,
2013-03-08 07:32:00,57.0,25.0,30.03,South,185,3.0,8.0,28,-99.99,,,-99.99,80.190002,,2013-03-08 14:32:00,
2013-03-08 07:42:00,58.0,27.0,30.04,South,189,6.0,15.0,30,-99.99,,,-99.99,126.220001,,2013-03-08 14:42:00,
2013-03-08 07:52:00,58.0,27.0,30.04,South,189,6.0,15.0,30,-99.99,,,-99.99,126.220001,,2013-03-08 14:52:00,
2013-03-08 08:03:00,58.0,27.0,30.04,South,170,6.0,12.0,31,-99.99,,,-99.99,217.570007,,2013-03-08 15:03:00,
2013-03-08 08:11:00,58.0,28.0,30.04,ESE,107,4.0,8.0,31,-99.99,,,-99.99,283.809998,,2013-03-08 15:11:00,
2013-03-08 08:22:00,58.0,28.0,30.04,ESE,107,4.0,8.0,31,-99.99,,,-99.99,283.809998,,2013-03-08 15:22:00,
2013-03-08 08:32:00,58.0,28.0,30.04,West,274,6.0,15.0,31,-99.99,,,-99.99,252.429993,,2013-03-08 15:32:00,
2013-03-08 08:42:00,58.0,28.0,30.04,SSE,155,5.0,11.0,31,-99.99,,,-99.99,403.059998,,2013-03-08 15:42:00,
2013-03-08 08:53:00,58.0,28.0,30.04,SSE,155,5.0,11.0,31,-99.99,,,-99.99,403.059998,,2013-03-08 15:53:00,
2013-03-08 09:01:00,58.0,28.0,30.04,WNW,282,4.0,12.0,31,-99.99,,,-99.99,334.720001,,2013-03-08 16:01:00,
2013-03-08 09:11:00,58.0,28.0,30.04,WNW,301,5.0,12.0,31,-99.99,,,-99.99,434.440002,,2013-03-08 16:11:00,
2013-03-08 09:22:00,58.0,28.0,30.04,WNW,301,5.0,12.0,31,-99.99,,,-99.99,434.440002,,2013-03-08 16:22:00,
2013-03-08 09:32:00,59.0,28.0,30.04,WNW,282,5.0,14.0,30,-99.99,,,-99.99,258.010010,,2013-03-08 16:32:00,
2013-03-08 09:42:00,58.0,28.0,30.04,West,261,8.0,24.0,31,-99.99,,,-99.99,98.320000,,2013-03-08 16:42:00,
2013-03-08 09:52:00,58.0,28.0,30.04,West,261,8.0,24.0,31,-99.99,,,-99.99,98.320000,,2013-03-08 16:52:00,
2013-03-08 10:02:00,58.0,28.0,30.03,SW,221,6.0,17.0,31,-99.99,,,-99.99,101.809998,,2013-03-08 17:02:00,
2013-03-08 10:11:00,59.0,27.0,30.03,SSW,208,6.0,14.0,29,-99.99,,,-99.99,124.820000,,2013-03-08 17:11:00,
2013-03-08 10:21:00,59.0,27.0,30.03,SSW,208,6.0,14.0,29,-99.99,,,-99.99,124.820000,,2013-03-08 17:21:00,
2013-03-08 10:32:00,60.0,27.0,30.02,SW,221,9.0,17.0,28,-99.99,,,-99.99,262.890015,,2013-03-08 17:32:00,
2013-03-08 10:42:00,60.0,27.0,30.02,SW,230,10.0,20.0,28,-99.99,,,-99.99,298.459991,,2013-03-08 17:42:00,
2013-03-08 10:52:00,60.0,27.0,30.02,SW,230,10.0,20.0,28,-99.99,,,-99.99,298.459991,,2013-03-08 17:52:00,
2013-03-08 11:02:00,61.0,28.0,30.02,WSW,243,10.0,23.0,28,-99.99,,,-99.99,382.839996,,2013-03-08 18:02:00,
2013-03-08 11:11:00,61.0,28.0,30.02,SW,230,9.0,21.0,28,-99.99,,,-99.99,434.440002,,2013-03-08 18:11:00,
2013-03-08 11:21:00,61.0,28.0,30.02,SW,230,9.0,21.0,28,-99.99,,,-99.99,434.440002,,2013-03-08 18:21:00,
2013-03-08 11:32:00,61.0,28.0,30.01,WSW,244,11.0,23.0,28,-99.99,,,-99.99,402.359985,,2013-03-08 18:32:00,
2013-03-08 11:42:00,61.0,29.0,30.01,SW,230,9.0,20.0,29,-99.99,,,-99.99,571.119995,,2013-03-08 18:42:00,
2013-03-08 11:52:00,61.0,29.0,30.01,SW,230,9.0,20.0,29,-99.99,,,-99.99,571.119995,,2013-03-08 18:52:00,
2013-03-08 12:01:00,61.0,29.0,30.01,SSW,213,12.0,23.0,29,-99.99,,,-99.99,877.250000,,2013-03-08 19:01:00,
2013-03-08 12:11:00,61.0,30.0,30.01,SW,214,11.0,20.0,30,-99.99,,,-99.99,541.130005,,2013-03-08 19:11:00,
2013-03-08 12:22:00,61.0,30.0,30.01,SW,214,11.0,20.0,30,-99.99,,,-99.99,541.130005,,2013-03-08 19:22:00,
2013-03-08 12:32:00,61.0,31.0,30.00,WSW,244,10.0,21.0,31,-99.99,,,-99.99,479.769989,,2013-03-08 19:32:00,
2013-03-08 12:42:00,60.0,32.0,30.00,WSW,237,13.0,29.0,34,-99.99,,,-99.99,730.109985,,2013-03-08 19:42:00,
2013-03-08 12:52:00,60.0,32.0,30.00,WSW,237,13.0,29.0,34,-99.99,,,-99.99,730.109985,,2013-03-08 19:52:00,
2013-03-08 13:01:00,62.0,32.0,30.00,WSW,243,10.0,36.0,32,-99.99,,,-99.99,972.080017,,2013-03-08 20:01:00,
2013-03-08 13:11:00,61.0,32.0,29.99,SW,230,11.0,29.0,33,-99.99,,,-99.99,889.799988,,2013-03-08 20:11:00,
2013-03-08 13:21:00,61.0,32.0,29.99,SW,230,11.0,29.0,33,-99.99,,,-99.99,889.799988,,2013-03-08 20:21:00,
2013-03-08 13:32:00,61.0,34.0,29.97,SW,236,12.0,27.0,36,-99.99,,,-99.99,624.809998,,2013-03-08 20:32:00,
2013-03-08 13:42:00,60.0,35.0,29.96,SW,223,10.0,29.0,39,-99.99,,,-99.99,373.070007,,2013-03-08 20:42:00,
2013-03-08 13:53:00,60.0,35.0,29.96,SW,223,10.0,29.0,39,-99.99,,,-99.99,373.070007,,2013-03-08 20:53:00,
2013-03-08 14:02:00,59.0,39.0,29.96,SW,232,10.0,27.0,46,-99.99,,,-99.99,586.460022,,2013-03-08 21:02:00,
2013-03-08 14:11:00,58.0,39.0,29.95,SW,233,10.0,35.0,49,-99.99,,,-99.99,278.929993,,2013-03-08 21:11:00,
2013-03-08 14:21:00,58.0,39.0,29.95,SW,233,10.0,35.0,49,-99.99,,,-99.99,278.929993,,2013-03-08 21:21:00,
2013-03-08 14:32:00,57.0,40.0,29.95,SW,216,11.0,28.0,53,-99.99,,,-99.99,187.580002,,2013-03-08 21:32:00,
2013-03-08 14:42:00,57.0,40.0,29.94,SW,217,13.0,32.0,53,-99.99,,,-99.99,141.559998,,2013-03-08 21:42:00,
2013-03-08 14:52:00,57.0,40.0,29.94,SW,217,13.0,32.0,53,-99.99,,,-99.99,141.559998,,2013-03-08 21:52:00,
2013-03-08 15:01:00,56.0,42.0,29.94,SW,230,15.0,42.0,58,-99.99,,,-99.99,193.160004,,2013-03-08 22:01:00,
2013-03-08 15:11:00,55.0,43.0,29.94,SW,224,13.0,35.0,64,-99.99,,,-99.99,232.210007,,2013-03-08 22:11:00,
2013-03-08 15:22:00,55.0,43.0,29.94,SW,224,13.0,35.0,64,-99.99,,,-99.99,232.210007,,2013-03-08 22:22:00,
2013-03-08 15:32:00,55.0,42.0,29.94,SW,225,15.0,36.0,61,-99.99,,,-99.99,149.929993,,2013-03-08 22:32:00,
2013-03-08 15:42:00,55.0,43.0,29.93,WSW,241,16.0,33.0,64,-99.99,,,-99.99,175.029999,,2013-03-08 22:42:00,
2013-03-08 15:53:00,55.0,43.0,29.93,WSW,241,16.0,33.0,64,-99.99,,,-99.99,175.029999,,2013-03-08 22:53:00,
2013-03-08 16:01:00,55.0,43.0,29.93,West,266,15.0,37.0,64,-99.99,,,-99.99,326.350006,,2013-03-08 23:01:00,
2013-03-08 16:12:00,56.0,43.0,29.92,WSW,249,11.0,29.0,61,-99.99,,,-99.99,118.550003,,2013-03-08 23:12:00,
2013-03-08 16:22:00,56.0,43.0,29.92,WSW,249,11.0,29.0,61,-99.99,,,-99.99,118.550003,,2013-03-08 23:22:00,
2013-03-08 16:32:00,56.0,42.0,29.92,WSW,248,8.0,25.0,58,-99.99,,,-99.99,178.520004,,2013-03-08 23:32:00,
2013-03-08 16:42:00,57.0,42.0,29.90,West,260,10.0,35.0,55,-99.99,,,-99.99,288.000000,,2013-03-08 23:42:00,
2013-03-08 16:53:00,58.0,40.0,29.90,SW,236,16.0,46.0,52,-99.99,,,-99.99,133.190002,,2013-03-08 23:53:00,
2013-03-08 17:02:00,58.0,40.0,29.90,SW,236,16.0,46.0,52,-99.99,,,-99.99,133.190002,,2013-03-09 00:02:00,
2013-03-08 17:11:00,58.0,40.0,29.89,WSW,241,16.0,43.0,52,-99.99,,,-99.99,57.880001,,2013-03-09 00:11:00,
2013-03-08 17:22:00,58.0,40.0,29.89,WSW,241,16.0,43.0,52,-99.99,,,-99.99,57.880001,,2013-03-09 00:22:00,
2013-03-08 17:32:00,58.0,37.0,29.89,WSW,254,23.0,60.0,44,-99.99,,,-99.99,50.209999,,2013-03-09 00:32:00,
2013-03-08 17:42:00,58.0,36.0,29.89,WSW,249,22.0,64.0,42,-99.99,,,-99.99,55.790001,,2013-03-09 00:42:00,
2013-03-08 17:52:00,58.0,36.0,29.89,WSW,249,22.0,64.0,42,-99.99,,,-99.99,55.790001,,2013-03-09 00:52:00,
2013-03-08 18:01:00,58.0,36.0,29.89,WSW,248,20.0,57.0,43,-99.99,,,-99.99,36.959999,,2013-03-09 01:01:00,
2013-03-08 18:12:00,58.0,36.0,29.89,WSW,247,20.0,61.0,43,-99.99,,,-99.99,23.010000,,2013-03-09 01:12:00,
2013-03-08 18:22:00,58.0,36.0,29.89,WSW,247,20.0,61.0,43,-99.99,,,-99.99,23.010000,,2013-03-09 01:22:00,
2013-03-08 18:32:00,58.0,36.0,29.89,WSW,247,20.0,61.0,43,-99.99,,,-99.99,23.010000,,2013-03-09 01:32:00,
2013-03-08 18:42:00,58.0,36.0,29.89,WSW,247,20.0,61.0,43,-99.99,,,-99.99,23.010000,,2013-03-09 01:42:00,
2013-03-08 20:11:00,56.0,32.0,29.90,WSW,253,20.0,47.0,39,-99.99,,,-99.99,0.000000,,2013-03-09 03:11:00,
2013-03-08 20:21:00,56.0,32.0,29.90,WSW,253,20.0,47.0,39,-99.99,,,-99.99,0.000000,,2013-03-09 03:21:00,
2013-03-08 20:31:00,56.0,33.0,29.89,WSW,258,17.0,47.0,41,-99.99,,,-99.99,0.000000,,2013-03-09 03:31:00,
2013-03-08 20:41:00,56.0,32.0,29.89,WSW,256,18.0,51.0,40,-99.99,,,-99.99,0.000000,,2013-03-09 03:41:00,
2013-03-08 20:52:00,56.0,32.0,29.89,WSW,256,18.0,51.0,40,-99.99,,,-99.99,0.000000,,2013-03-09 03:52:00,
2013-03-08 21:01:00,56.0,32.0,29.89,WSW,247,18.0,48.0,39,-99.99,,,-99.99,0.000000,,2013-03-09 04:01:00,
2013-03-08 21:11:00,56.0,31.0,29.88,WSW,241,15.0,45.0,38,-99.99,,,-99.99,0.000000,,2013-03-09 04:11:00,
2013-03-08 21:22:00,56.0,31.0,29.88,WSW,241,15.0,45.0,38,-99.99,,,-99.99,0.000000,,2013-03-09 04:22:00,
2013-03-08 21:32:00,56.0,30.0,29.88,West,259,18.0,55.0,37,-99.99,,,-99.99,0.000000,,2013-03-09 04:32:00,
2013-03-08 21:41:00,56.0,30.0,29.88,WSW,250,20.0,56.0,37,-99.99,,,-99.99,0.000000,,2013-03-09 04:41:00,
2013-03-08 21:52:00,56.0,29.0,29.87,WSW,254,19.0,63.0,35,-99.99,,,-99.99,0.000000,,2013-03-09 04:52:00,
2013-03-08 22:02:00,56.0,29.0,29.87,WSW,254,19.0,63.0,35,-99.99,,,-99.99,0.000000,,2013-03-09 05:02:00,
2013-03-08 22:12:00,56.0,29.0,29.87,WSW,255,20.0,57.0,35,-99.99,,,-99.99,0.000000,,2013-03-09 05:12:00,
2013-03-08 22:22:00,56.0,29.0,29.87,WSW,255,20.0,57.0,35,-99.99,,,-99.99,0.000000,,2013-03-09 05:22:00,
2013-03-08 22:31:00,56.0,30.0,29.87,SW,231,14.0,47.0,36,-99.99,,,-99.99,0.000000,,2013-03-09 05:31:00,
2013-03-08 22:42:00,56.0,30.0,29.87,SW,236,17.0,56.0,36,-99.99,,,-99.99,0.000000,,2013-03-09 05:42:00,
2013-03-08 22:53:00,55.0,32.0,29.86,WSW,255,27.0,58.0,42,-99.99,,,-99.99,0.000000,,2013-03-09 05:53:00,
2013-03-08 23:01:00,55.0,32.0,29.86,WSW,255,27.0,58.0,42,-99.99,,,-99.99,0.000000,,2013-03-09 06:01:00,
2013-03-08 23:11:00,53.0,34.0,29.86,West,260,20.0,46.0,47,-99.99,,,-99.99,0.000000,,2013-03-09 06:11:00,
2013-03-08 23:22:00,53.0,34.0,29.86,West,260,20.0,46.0,47,-99.99,,,-99.99,0.000000,,2013-03-09 06:22:00,
2013-03-08 23:32:00,52.0,34.0,29.86,West,277,17.0,34.0,50,-99.99,,,-99.99,0.000000,,2013-03-09 06:32:00,
2013-03-08 23:42:00,50.0,35.0,29.87,WNW,285,16.0,25.0,56,-99.99,,,-99.99,0.000000,,2013-03-09 06:42:00,
2013-03-08 23:52:00,50.0,35.0,29.87,WNW,285,16.0,25.0,56,-99.99,,,-99.99,0.000000,,2013-03-09 06:52:00,